createdAt,value
2022-12-23T00:00:42.632Z,37.20
2022-12-23T00:03:09.864Z,31.00
2022-12-23T00:05:40.186Z,32.23
2022-12-23T00:08:08.203Z,35.30
2022-12-23T00:10:38.263Z,37.87
2022-12-23T00:13:23.710Z,37.20
2022-12-23T00:15:50.394Z,39.67
2022-12-23T00:18:17.142Z,42.97
2022-12-23T00:20:43.805Z,36.80
2022-12-23T00:23:10.491Z,40.73
2022-12-23T00:25:41.990Z,43.80
2022-12-23T00:28:17.104Z,36.67
2022-12-23T00:30:52.522Z,35.40
2022-12-23T00:33:21.923Z,41.60
2022-12-23T00:35:49.224Z,35.67
2022-12-23T00:38:17.206Z,38.20
2022-12-23T00:41:02.877Z,36.80
2022-12-23T00:43:29.544Z,46.93
2022-12-23T00:45:56.405Z,41.13
2022-12-23T00:48:41.596Z,39.03
2022-12-23T00:51:08.297Z,47.87
2022-12-23T00:53:34.944Z,42.37
2022-12-23T00:56:01.609Z,42.20
2022-12-23T00:58:28.343Z,46.03
2022-12-23T01:01:13.575Z,49.97
2022-12-23T01:03:58.966Z,42.50
2022-12-23T01:06:25.653Z,50.97
2022-12-23T01:08:52.329Z,44.97
2022-12-23T01:11:19.123Z,51.60
2022-12-23T01:13:45.778Z,50.67
2022-12-23T01:16:17.191Z,48.50
2022-12-23T01:18:45.069Z,51.07
2022-12-23T01:21:12.013Z,47.93
2022-12-23T01:23:38.718Z,61.23
2022-12-23T01:26:07.201Z,50.50
2022-12-23T01:28:35.252Z,47.43
2022-12-23T01:31:04.248Z,52.10
2022-12-23T01:33:32.031Z,45.73
2022-12-23T01:36:08.206Z,52.13
2022-12-23T01:38:35.426Z,51.87
2022-12-23T01:41:02.181Z,45.20
2022-12-23T01:43:48.869Z,53.80
2022-12-23T01:46:15.816Z,45.97
2022-12-23T01:48:48.952Z,51.93
2022-12-23T01:51:26.958Z,53.10
2022-12-23T01:53:59.265Z,49.40
2022-12-23T01:56:34.534Z,55.80
2022-12-23T01:59:08.504Z,46.73
2022-12-23T02:01:54.072Z,47.73
2022-12-23T02:04:24.819Z,53.27
2022-12-23T02:07:11.041Z,50.53
2022-12-23T02:09:39.831Z,51.60
2022-12-23T02:12:44.204Z,49.67
2022-12-23T02:15:37.570Z,56.20
2022-12-23T02:18:19.161Z,49.00
2022-12-23T02:21:11.216Z,46.37
2022-12-23T02:24:02.148Z,50.20
2022-12-23T02:27:00.188Z,46.33
2022-12-23T02:29:45.440Z,46.07
2022-12-23T02:32:23.621Z,50.63
2022-12-23T02:34:59.652Z,44.60
2022-12-23T02:38:00.363Z,41.43
2022-12-23T02:41:02.827Z,41.97
2022-12-23T02:43:39.447Z,37.77
2022-12-23T02:46:36.481Z,38.50
2022-12-23T02:49:26.240Z,40.20
2022-12-23T02:51:56.055Z,34.87
2022-12-23T02:54:36.093Z,35.83
2022-12-23T02:57:05.593Z,41.67
2022-12-23T02:59:46.496Z,40.60
2022-12-23T03:02:13.696Z,36.40
2022-12-23T03:04:42.098Z,42.40
2022-12-23T03:07:21.257Z,42.10
2022-12-23T03:10:08.792Z,38.03
2022-12-23T03:12:58.659Z,42.87
2022-12-23T03:15:40.964Z,32.10
2022-12-23T03:18:35.924Z,35.50
2022-12-23T03:21:17.515Z,43.20
2022-12-23T03:23:55.972Z,38.97
2022-12-23T03:26:38.552Z,38.57
2022-12-23T03:29:17.613Z,42.30
2022-12-23T03:31:45.551Z,44.17
2022-12-23T03:34:19.755Z,42.50
2022-12-23T03:36:51.012Z,49.63
2022-12-23T03:39:22.023Z,35.87
2022-12-23T03:41:54.053Z,41.63
2022-12-23T03:44:35.383Z,43.70
2022-12-23T03:47:09.190Z,45.50
2022-12-23T03:49:44.607Z,44.87
2022-12-23T03:52:21.288Z,46.30
2022-12-23T03:55:02.135Z,45.73
2022-12-23T03:58:10.308Z,48.33
2022-12-23T04:00:44.793Z,52.37
2022-12-23T04:03:43.433Z,46.33
2022-12-23T04:06:12.666Z,53.03
2022-12-23T04:08:41.435Z,59.33
2022-12-23T04:11:08.553Z,53.47
2022-12-23T04:13:35.292Z,62.57
2022-12-23T04:16:02.758Z,60.70
2022-12-23T04:18:30.007Z,58.67
2022-12-23T04:20:56.667Z,59.27
2022-12-23T04:23:23.404Z,66.50
2022-12-23T04:25:50.233Z,60.83
2022-12-23T04:28:18.239Z,68.23
2022-12-23T04:30:44.940Z,71.37
2022-12-23T04:33:12.576Z,78.80
2022-12-23T04:35:39.459Z,74.73
2022-12-23T04:38:06.556Z,74.27
2022-12-23T04:40:33.300Z,81.60
2022-12-23T04:42:59.970Z,82.73
2022-12-23T04:45:26.693Z,67.77
2022-12-23T04:47:54.602Z,81.27
2022-12-23T04:50:21.339Z,76.33
2022-12-23T04:52:47.996Z,81.63
2022-12-23T04:55:14.668Z,77.63
2022-12-23T04:57:41.418Z,85.33
2022-12-23T05:00:08.920Z,83.27
2022-12-23T05:02:35.706Z,86.93
2022-12-23T05:05:02.501Z,97.00
2022-12-23T05:07:29.184Z,82.23
2022-12-23T05:10:01.479Z,83.47
2022-12-23T05:12:29.903Z,84.37
2022-12-23T05:14:56.727Z,78.13
2022-12-23T05:17:23.491Z,78.07
2022-12-23T05:19:50.204Z,74.27
2022-12-23T05:22:16.861Z,74.20
2022-12-23T05:24:43.634Z,66.60
2022-12-23T05:27:10.335Z,75.10
2022-12-23T05:29:37.063Z,80.33
2022-12-23T05:32:04.019Z,68.70
2022-12-23T05:34:30.827Z,78.40
2022-12-23T05:36:57.512Z,74.67
2022-12-23T05:39:24.168Z,86.97
2022-12-23T05:41:50.917Z,85.57
2022-12-23T05:44:17.580Z,75.60
2022-12-23T05:46:44.304Z,67.00
2022-12-23T05:49:11.013Z,86.80
2022-12-23T05:51:37.683Z,69.83
2022-12-23T05:54:04.402Z,60.70
2022-12-23T05:56:31.158Z,73.83
2022-12-23T05:58:57.892Z,63.23
2022-12-23T06:01:24.566Z,76.53
2022-12-23T06:03:51.306Z,65.27
2022-12-23T06:06:18.185Z,68.03
2022-12-23T06:08:44.911Z,69.63
2022-12-23T06:11:12.930Z,60.00
2022-12-23T06:13:39.636Z,73.07
2022-12-23T06:16:06.797Z,73.73
2022-12-23T06:18:33.505Z,64.53
2022-12-23T06:21:00.177Z,70.23
2022-12-23T06:23:26.884Z,70.30
2022-12-23T06:26:00.976Z,74.93
2022-12-23T06:28:29.181Z,82.57
2022-12-23T06:30:57.203Z,77.80
2022-12-23T06:33:24.684Z,85.07
2022-12-23T06:35:51.534Z,83.23
2022-12-23T06:38:18.222Z,86.17
2022-12-23T06:40:44.938Z,84.77
2022-12-23T06:43:13.437Z,89.10
2022-12-23T06:45:40.588Z,79.60
2022-12-23T06:48:07.581Z,86.30
2022-12-23T06:50:34.260Z,84.20
2022-12-23T06:53:00.965Z,92.83
2022-12-23T06:55:27.691Z,81.53
2022-12-23T06:57:54.410Z,94.00
2022-12-23T07:00:21.139Z,94.37
2022-12-23T07:02:48.212Z,89.20
2022-12-23T07:05:17.942Z,82.83
2022-12-23T07:07:44.715Z,103.17
2022-12-23T07:10:12.809Z,104.20
2022-12-23T07:12:39.564Z,95.30
2022-12-23T07:15:07.208Z,85.87
2022-12-23T07:17:33.960Z,78.00
2022-12-23T07:20:00.923Z,93.53
2022-12-23T07:22:27.610Z,82.33
2022-12-23T07:24:54.319Z,76.53
2022-12-23T07:27:21.120Z,73.13
2022-12-23T07:29:47.832Z,63.23
2022-12-23T07:32:18.812Z,73.73
2022-12-23T07:34:45.471Z,67.37
2022-12-23T07:37:12.314Z,73.43
2022-12-23T07:39:39.031Z,67.10
2022-12-23T07:44:52.408Z,56.40
2022-12-23T07:47:19.059Z,68.70
2022-12-23T07:49:45.771Z,63.07
2022-12-23T07:52:12.434Z,73.83
2022-12-23T07:54:39.088Z,60.37
2022-12-23T07:57:05.789Z,57.67
2022-12-23T07:59:32.449Z,58.57
2022-12-23T08:01:59.300Z,58.73
2022-12-23T08:04:26.104Z,50.73
2022-12-23T08:06:52.872Z,62.93
2022-12-23T08:09:19.676Z,60.13
2022-12-23T08:11:49.227Z,55.37
2022-12-23T08:14:16.017Z,66.80
2022-12-23T08:16:45.434Z,58.37
2022-12-23T08:19:12.176Z,62.70
2022-12-23T08:21:38.902Z,61.77
2022-12-23T08:24:06.042Z,68.60
2022-12-23T08:26:33.483Z,61.43
2022-12-23T08:29:00.698Z,78.10
2022-12-23T08:31:32.058Z,74.77
2022-12-23T08:34:00.591Z,78.77
2022-12-23T08:36:35.538Z,74.83
2022-12-23T08:39:06.587Z,71.67
2022-12-23T08:41:37.555Z,67.47
2022-12-23T08:44:04.733Z,92.03
2022-12-23T08:46:31.693Z,73.97
2022-12-23T08:48:58.685Z,77.97
2022-12-23T08:51:25.907Z,85.67
2022-12-23T08:54:00.121Z,87.73
2022-12-23T08:56:34.198Z,82.50
2022-12-23T08:59:02.044Z,83.40
2022-12-23T09:01:31.503Z,82.47
2022-12-23T09:03:58.620Z,90.97
2022-12-23T09:06:31.773Z,83.83
2022-12-23T09:09:00.091Z,81.07
2022-12-23T09:11:29.494Z,93.50
2022-12-23T09:14:01.749Z,91.20
2022-12-23T09:16:31.949Z,92.53
2022-12-23T09:18:58.871Z,92.33
2022-12-23T09:21:25.881Z,102.87
2022-12-23T09:23:52.958Z,98.27
2022-12-23T09:26:25.783Z,97.27
2022-12-23T09:28:53.077Z,97.90
2022-12-23T09:31:20.837Z,101.17
2022-12-23T09:33:49.824Z,116.67
2022-12-23T09:36:17.265Z,98.47
2022-12-23T09:38:44.016Z,106.07
2022-12-23T09:41:29.933Z,110.27
2022-12-23T09:44:23.696Z,113.30
2022-12-23T09:47:06.196Z,125.40
2022-12-23T09:49:34.291Z,118.43
2022-12-23T09:52:05.374Z,119.87
2022-12-23T09:54:58.540Z,110.90
2022-12-23T09:57:36.322Z,125.10
2022-12-23T10:00:13.908Z,127.30
2022-12-23T10:03:18.331Z,128.07
2022-12-23T10:06:12.889Z,118.13
2022-12-23T10:08:48.849Z,121.30
2022-12-23T10:11:23.926Z,112.73
2022-12-23T10:13:58.333Z,133.97
2022-12-23T10:16:32.334Z,129.80
2022-12-23T10:19:04.167Z,118.00
2022-12-23T10:21:50.296Z,117.80
2022-12-23T10:24:20.765Z,119.03
2022-12-23T10:26:56.290Z,125.70
2022-12-23T10:29:30.524Z,121.93
2022-12-23T10:32:15.555Z,133.80
2022-12-23T10:35:08.817Z,129.53
2022-12-23T10:38:23.186Z,128.53
2022-12-23T10:41:10.039Z,127.93
2022-12-23T10:44:11.161Z,131.13
2022-12-23T10:47:00.761Z,127.50
2022-12-23T10:49:49.115Z,140.43
2022-12-23T10:52:20.620Z,130.80
2022-12-23T10:54:48.308Z,145.97
2022-12-23T10:57:16.967Z,134.70
2022-12-23T10:59:44.067Z,137.40
2022-12-23T11:02:13.732Z,124.17
2022-12-23T11:04:48.768Z,128.00
2022-12-23T11:10:17.061Z,128.33
2022-12-23T11:12:49.907Z,139.90
2022-12-23T11:15:36.404Z,119.10
2022-12-23T11:18:16.315Z,109.30
2022-12-23T11:21:03.420Z,126.97
2022-12-23T11:23:36.549Z,120.97
2022-12-23T11:26:05.343Z,123.77
2022-12-23T11:28:34.213Z,118.20
2022-12-23T11:31:11.781Z,107.80
2022-12-23T11:33:45.490Z,113.10
2022-12-23T11:36:23.959Z,103.83
2022-12-23T11:39:13.471Z,107.23
2022-12-23T11:41:47.580Z,87.93
2022-12-23T11:44:25.992Z,89.77
2022-12-23T11:46:52.846Z,71.37
2022-12-23T11:49:33.716Z,83.53
2022-12-23T11:52:13.899Z,90.27
2022-12-23T11:54:40.752Z,77.50
2022-12-23T11:57:16.573Z,77.17
2022-12-23T11:59:48.957Z,73.27
2022-12-23T12:02:21.796Z,70.30
2022-12-23T12:05:02.569Z,76.73
2022-12-23T12:07:30.767Z,62.53
2022-12-23T12:10:00.058Z,66.93
2022-12-23T12:12:29.213Z,57.00
2022-12-23T12:14:58.844Z,61.40
2022-12-23T12:17:41.134Z,59.13
2022-12-23T12:20:40.883Z,57.10
2022-12-23T12:23:24.545Z,54.23
2022-12-23T12:26:01.186Z,54.97
2022-12-23T12:28:48.550Z,59.77
2022-12-23T12:31:32.245Z,60.37
2022-12-23T12:34:24.790Z,61.23
2022-12-23T12:37:00.093Z,53.77
2022-12-23T12:39:41.042Z,60.83
2022-12-23T12:42:21.477Z,69.17
2022-12-23T12:45:10.000Z,75.47
2022-12-23T12:48:06.980Z,70.63
2022-12-23T12:50:34.667Z,82.03
2022-12-23T12:53:11.556Z,86.03
2022-12-23T12:55:46.180Z,95.03
2022-12-23T12:58:20.006Z,94.87
2022-12-23T13:00:51.513Z,99.00
2022-12-23T13:03:41.450Z,100.43
2022-12-23T13:06:11.528Z,111.47
2022-12-23T13:09:07.645Z,99.07
2022-12-23T13:11:58.423Z,100.87
2022-12-23T13:14:47.958Z,118.60
2022-12-23T13:17:29.819Z,101.20
2022-12-23T13:20:20.983Z,112.97
2022-12-23T13:22:54.093Z,104.97
2022-12-23T13:25:20.978Z,102.70
2022-12-23T13:27:57.594Z,113.20
2022-12-23T13:30:28.608Z,120.07
2022-12-23T13:33:29.203Z,121.60
2022-12-23T13:36:27.349Z,127.60
2022-12-23T13:39:13.116Z,92.20
2022-12-23T13:41:49.083Z,122.20
2022-12-23T13:44:18.864Z,103.00
2022-12-23T13:46:50.707Z,124.73
2022-12-23T13:49:41.634Z,100.23
2022-12-23T13:52:31.985Z,100.13
2022-12-23T13:55:32.690Z,106.00
2022-12-23T13:58:17.465Z,120.77
2022-12-23T14:00:44.925Z,118.53
2022-12-23T14:03:18.094Z,84.77
2022-12-23T14:05:50.366Z,106.17
2022-12-23T14:08:22.108Z,123.67
2022-12-23T14:10:55.048Z,114.70
2022-12-23T14:13:25.322Z,102.87
2022-12-23T14:16:04.247Z,103.73
2022-12-23T14:18:58.269Z,92.33
2022-12-23T14:21:43.321Z,100.87
2022-12-23T14:24:28.789Z,98.07
2022-12-23T14:27:33.331Z,94.10
2022-12-23T14:30:15.306Z,107.67
2022-12-23T14:32:52.084Z,105.43
2022-12-23T14:35:48.216Z,109.13
2022-12-23T14:38:14.989Z,101.83
2022-12-23T14:40:55.201Z,97.87
2022-12-23T14:43:51.236Z,98.13
2022-12-23T14:46:44.384Z,84.77
2022-12-23T14:49:39.141Z,101.43
2022-12-23T14:52:38.077Z,93.53
2022-12-23T14:55:32.967Z,101.07
2022-12-23T14:58:13.244Z,98.60
2022-12-23T15:01:17.632Z,101.80
2022-12-23T15:03:57.574Z,88.80
2022-12-23T15:06:41.024Z,92.47
2022-12-23T15:09:18.652Z,93.93
2022-12-23T15:11:45.398Z,92.57
2022-12-23T15:14:25.417Z,91.57
2022-12-23T15:16:52.215Z,92.23
2022-12-23T15:19:22.995Z,85.43
2022-12-23T15:21:56.748Z,75.27
2022-12-23T15:24:27.105Z,77.00
2022-12-23T15:27:24.763Z,76.17
2022-12-23T15:29:47.467Z,75.87
2022-12-23T15:32:14.225Z,83.37
2022-12-23T15:34:41.543Z,92.00
2022-12-23T15:37:13.228Z,87.97
2022-12-23T15:39:43.855Z,81.63
2022-12-23T15:42:46.347Z,83.23
2022-12-23T15:45:40.847Z,86.27
2022-12-23T15:48:28.859Z,87.60
2022-12-23T15:51:21.950Z,96.10
2022-12-23T15:54:04.816Z,99.70
2022-12-23T15:56:34.886Z,110.50
2022-12-23T15:59:03.768Z,97.43
2022-12-23T16:01:39.495Z,107.07
2022-12-23T16:04:08.861Z,87.93
2022-12-23T16:06:37.259Z,88.20
2022-12-23T16:09:06.048Z,93.17
2022-12-23T16:11:59.147Z,89.47
2022-12-23T16:14:42.440Z,95.20
2022-12-23T16:17:09.177Z,88.00
2022-12-23T16:19:55.094Z,94.27
2022-12-23T16:22:34.478Z,94.60
2022-12-23T16:25:16.940Z,97.43
2022-12-23T16:27:50.266Z,83.70
2022-12-23T16:30:29.160Z,96.33
2022-12-23T16:32:58.622Z,107.47
2022-12-23T16:35:28.357Z,88.00
2022-12-23T16:38:11.365Z,125.95
2022-12-23T16:40:38.161Z,78.57
2022-12-23T16:43:05.153Z,99.10
2022-12-23T16:45:33.464Z,88.00
2022-12-23T16:48:00.737Z,98.97
2022-12-23T16:50:27.742Z,99.87
2022-12-23T16:52:54.454Z,116.07
2022-12-23T16:55:21.139Z,115.83
2022-12-23T16:57:47.886Z,97.30
2022-12-23T17:00:17.449Z,115.37
2022-12-23T17:02:45.954Z,125.73
2022-12-23T17:05:20.705Z,107.37
2022-12-23T17:07:47.966Z,141.37
2022-12-23T17:10:17.107Z,123.70
2022-12-23T17:12:45.279Z,122.40
2022-12-23T17:15:25.980Z,124.27
2022-12-23T17:17:54.311Z,145.73
2022-12-23T17:20:22.971Z,132.93
2022-12-23T17:22:53.468Z,174.53
2022-12-23T17:25:26.664Z,197.03
2022-12-23T17:27:55.528Z,172.63
2022-12-23T17:30:25.241Z,220.70
2022-12-23T17:32:56.860Z,127.03
2022-12-23T17:35:25.077Z,168.77
2022-12-23T17:37:51.960Z,172.20
2022-12-23T17:40:19.831Z,149.67
2022-12-23T17:42:47.497Z,165.20
2022-12-23T17:45:25.747Z,206.83
2022-12-23T17:47:52.791Z,143.43
2022-12-23T17:50:20.716Z,132.53
2022-12-23T17:52:47.785Z,179.23
2022-12-23T17:55:32.800Z,146.47
2022-12-23T17:57:59.617Z,175.13
2022-12-23T18:00:33.984Z,153.27
2022-12-23T18:03:01.523Z,164.47
2022-12-23T18:05:30.639Z,150.40
2022-12-23T18:07:59.045Z,141.50
2022-12-23T18:10:32.722Z,173.33
2022-12-23T18:13:06.106Z,132.77
2022-12-23T18:15:36.271Z,124.53
2022-12-23T18:18:17.805Z,142.40
2022-12-23T18:20:49.969Z,116.17
2022-12-23T18:23:25.000Z,137.33
2022-12-23T18:25:51.787Z,107.93
2022-12-23T18:28:18.556Z,119.90
2022-12-23T18:30:45.466Z,113.43
2022-12-23T18:33:13.207Z,107.83
2022-12-23T18:35:44.011Z,133.77
2022-12-23T18:38:11.454Z,99.13
2022-12-23T18:40:39.330Z,108.77
2022-12-23T18:43:06.580Z,105.27
2022-12-23T18:45:38.487Z,94.63
2022-12-23T18:48:07.424Z,120.43
2022-12-23T18:50:36.811Z,120.50
2022-12-23T18:53:04.045Z,97.07
2022-12-23T18:55:30.959Z,101.40
2022-12-23T18:57:59.315Z,94.50
2022-12-23T19:00:30.998Z,106.20
2022-12-23T19:02:57.866Z,87.90
2022-12-23T19:05:27.544Z,76.63
2022-12-23T19:07:56.345Z,91.33
2022-12-23T19:10:29.492Z,80.03
2022-12-23T19:12:56.496Z,78.50
2022-12-23T19:15:23.884Z,72.73
2022-12-23T19:17:50.618Z,82.43
2022-12-23T19:20:18.840Z,76.87
2022-12-23T19:22:46.961Z,87.47
2022-12-23T19:25:16.859Z,83.57
2022-12-23T19:27:45.091Z,81.00
2022-12-23T19:30:17.864Z,69.37
2022-12-23T19:32:46.780Z,59.63
2022-12-23T19:35:14.842Z,65.70
2022-12-23T19:37:42.254Z,64.80
2022-12-23T19:40:09.960Z,63.47
2022-12-23T19:42:40.323Z,76.63
2022-12-23T19:45:08.967Z,79.93
2022-12-23T19:47:35.975Z,68.77
2022-12-23T19:50:03.383Z,67.37
2022-12-23T19:52:30.344Z,86.90
2022-12-23T19:54:57.028Z,69.73
2022-12-23T19:57:24.400Z,73.73
2022-12-23T19:59:51.081Z,82.60
2022-12-23T20:02:20.007Z,85.30
2022-12-23T20:04:47.031Z,79.03
2022-12-23T20:07:13.753Z,72.00
2022-12-23T20:09:40.510Z,74.50
2022-12-23T20:12:07.369Z,74.77
2022-12-23T20:14:34.609Z,67.17
2022-12-23T20:17:01.475Z,60.53
2022-12-23T20:19:28.525Z,58.83
2022-12-23T20:21:57.857Z,77.57
2022-12-23T20:24:24.529Z,67.50
2022-12-23T20:26:51.227Z,64.83
2022-12-23T20:29:17.893Z,82.87
2022-12-23T20:31:44.670Z,57.03
2022-12-23T20:34:15.591Z,79.13
2022-12-23T20:36:45.025Z,68.60
2022-12-23T20:39:17.885Z,88.57
2022-12-23T20:41:44.662Z,85.70
2022-12-23T20:46:58.146Z,91.47
2022-12-23T20:49:24.905Z,77.70
2022-12-23T20:51:51.588Z,56.80
2022-12-23T20:54:24.961Z,76.67
2022-12-23T20:57:01.143Z,80.27
2022-12-23T20:59:27.910Z,87.13
2022-12-23T21:01:55.058Z,93.40
2022-12-23T21:04:24.574Z,72.80
2022-12-23T21:06:52.661Z,71.33
2022-12-23T21:09:19.535Z,73.77
2022-12-23T21:11:47.678Z,75.67
2022-12-23T21:14:19.525Z,72.10
2022-12-23T21:16:46.590Z,59.43
2022-12-23T21:19:16.809Z,76.90
2022-12-23T21:21:43.969Z,52.80
2022-12-23T21:24:14.135Z,61.60
2022-12-23T21:26:42.093Z,68.43
2022-12-23T21:29:12.508Z,57.10
2022-12-23T21:31:40.924Z,66.53
2022-12-23T21:34:08.012Z,50.67
2022-12-23T21:36:37.587Z,58.00
2022-12-23T21:39:06.434Z,57.87
2022-12-23T21:41:38.209Z,47.23
2022-12-23T21:44:05.656Z,51.20
2022-12-23T21:46:35.176Z,50.27
2022-12-23T21:49:02.373Z,42.63
2022-12-23T21:51:39.090Z,42.50
2022-12-23T21:54:08.078Z,44.53
2022-12-23T21:56:35.681Z,50.20
2022-12-23T21:59:08.564Z,51.17
2022-12-23T22:01:35.430Z,47.80
2022-12-23T22:04:05.596Z,38.87
2022-12-23T22:06:37.655Z,37.00
2022-12-23T22:09:07.863Z,29.67
2022-12-23T22:11:36.324Z,45.33
2022-12-23T22:14:04.829Z,34.30
2022-12-23T22:16:32.432Z,35.70
2022-12-23T22:19:00.793Z,38.07
2022-12-23T22:21:30.150Z,31.67
2022-12-23T22:23:57.518Z,42.30
2022-12-23T22:26:30.018Z,34.67
2022-12-23T22:29:02.101Z,31.70
2022-12-23T22:31:36.736Z,35.90
2022-12-23T22:34:04.641Z,34.30
2022-12-23T22:36:32.120Z,33.33
2022-12-23T22:39:00.533Z,26.10
2022-12-23T22:41:28.925Z,29.80
2022-12-23T22:43:57.098Z,27.20
2022-12-23T22:46:25.427Z,33.60
2022-12-23T22:48:52.704Z,30.60
2022-12-23T22:51:24.555Z,30.87
2022-12-23T22:53:51.383Z,37.20
2022-12-23T22:56:20.745Z,43.30
2022-12-23T22:58:48.310Z,28.33
2022-12-23T23:01:40.643Z,34.57
2022-12-23T23:04:10.268Z,34.83
2022-12-23T23:06:38.585Z,34.73
2022-12-23T23:09:11.531Z,35.30
2022-12-23T23:11:38.337Z,51.50
2022-12-23T23:14:05.175Z,33.50
2022-12-23T23:16:32.249Z,39.77
2022-12-23T23:18:59.950Z,36.90
2022-12-23T23:21:26.794Z,43.67
2022-12-23T23:23:53.506Z,37.33
2022-12-23T23:26:20.863Z,28.10
2022-12-23T23:28:47.771Z,29.60
2022-12-23T23:31:41.240Z,36.53
2022-12-23T23:34:01.450Z,36.87
2022-12-23T23:36:28.263Z,39.93
2022-12-23T23:38:55.062Z,35.10
2022-12-23T23:41:23.805Z,36.90
2022-12-23T23:43:51.499Z,37.17
2022-12-23T23:46:19.551Z,32.60
2022-12-23T23:48:46.353Z,38.33
2022-12-23T23:51:13.067Z,38.97
2022-12-23T23:53:40.380Z,30.90
2022-12-23T23:56:08.628Z,31.60
2022-12-23T23:58:36.740Z,40.37
